| time (UTC) | temp C | wind direction | speed KPH | gust KPH | rain 1hr cm | rain 24hr cm | rain mn cm | humidity % | barometer mb |
| 20260507201558 | 28 | 94 | 3.2 | 3.2 | 0.00 | 0.00 | 0.00 | 74 | 1008.7 |
| 20260507201056 | 28 | 96 | 4.8 | 6.4 | 0.00 | 0.00 | 0.00 | 75 | 1009.0 |
| 20260507200551 | 28 | 75 | 4.8 | 4.8 | 0.00 | 0.00 | 0.00 | 77 | 1009.3 |
| 20260507200047 | 28 | 57 | 3.2 | 3.2 | 0.00 | 0.00 | 0.00 | 76 | 1009.1 |
| 20260507195545 | 28 | 83 | 4.8 | 4.8 | 0.00 | 0.00 | 0.00 | 74 | 1009.3 |
| 20260507195042 | 28 | 87 | 6.4 | 9.7 | 0.00 | 0.00 | 0.00 | 74 | 1009.3 |
| 20260507194538 | 28 | 117 | 6.4 | 6.4 | 0.00 | 0.00 | 0.00 | 76 | 1009.2 |
| 20260507194034 | 28 | 64 | 8.0 | 11.3 | 0.00 | 0.00 | 0.00 | 74 | 1009.4 |
| 20260507193532 | 28 | 83 | 6.4 | 6.4 | 0.00 | 0.00 | 0.00 | 76 | 1009.5 |
| 20260507193028 | 28 | 68 | 9.7 | 11.3 | 0.00 | 0.00 | 0.00 | 77 | 1009.6 |
| 20260507192525 | 28 | 117 | 8.0 | 11.3 | 0.00 | 0.00 | 0.00 | 81 | 1009.5 |
| 20260507192021 | 28 | 59 | 9.7 | 9.7 | 0.00 | 0.00 | 0.00 | 79 | 1009.5 |
| 20260507191517 | 30 | 110 | 9.7 | 11.3 | 0.00 | 0.00 | 0.00 | 73 | 1009.7 |
| 20260507191014 | 30 | 91 | 8.0 | 11.3 | 0.00 | 0.00 | 0.00 | 67 | 1009.6 |
| 20260507190511 | 30 | 137 | 9.7 | 12.9 | 0.00 | 0.00 | 0.00 | 65 | 1009.3 |
| 20260507190010 | 30 | 83 | 11.3 | 12.9 | 0.00 | 0.00 | 0.00 | 64 | 1009.3 |
| 20260507185508 | 31 | 53 | 6.4 | 6.4 | 0.00 | 0.00 | 0.00 | 63 | 1009.4 |
| 20260507185004 | 31 | 103 | 8.0 | 11.3 | 0.00 | 0.00 | 0.00 | 61 | 1009.2 |
| 20260507184503 | 31 | 66 | 12.9 | 12.9 | 0.00 | 0.00 | 0.00 | 61 | 1009.3 |
| 20260507184000 | 32 | 108 | 9.7 | 12.9 | 0.00 | 0.00 | 0.00 | 58 | 1009.5 |
| 20260507183456 | 32 | 67 | 14.5 | 16.1 | 0.00 | 0.00 | 0.00 | 57 | 1009.1 |
| 20260507182953 | 32 | 73 | 12.9 | 14.5 | 0.00 | 0.00 | 0.00 | 57 | 1009.1 |
| 20260507182449 | 32 | 115 | 14.5 | 16.1 | 0.00 | 0.00 | 0.00 | 56 | 1009.3 |
| 20260507181945 | 32 | 105 | 9.7 | 11.3 | 0.00 | 0.00 | 0.00 | 57 | 1009.3 |
| 20260507181442 | 32 | 170 | 12.9 | 14.5 | 0.00 | 0.00 | 0.00 | 57 | 1009.5 |
| 20260507180938 | 32 | 77 | 8.0 | 9.7 | 0.00 | 0.00 | 0.00 | 57 | 1009.6 |
| 20260507180435 | 32 | 124 | 9.7 | 11.3 | 0.00 | 0.00 | 0.00 | 58 | 1009.8 |
| 20260507175931 | 32 | 104 | 12.9 | 16.1 | 0.00 | 0.00 | 0.00 | 57 | 1009.6 |
| 20260507175428 | 32 | 42 | 14.5 | 16.1 | 0.00 | 0.00 | 0.00 | 58 | 1009.9 |
| 20260507174926 | 32 | 46 | 9.7 | 11.3 | 0.00 | 0.00 | 0.00 | 57 | 1009.7 |
| 20260507174423 | 32 | 139 | 8.0 | 14.5 | 0.00 | 0.00 | 0.00 | 58 | 1010.1 |
| 20260507173920 | 32 | 124 | 9.7 | 11.3 | 0.00 | 0.00 | 0.00 | 57 | 1010.0 |
| 20260507173417 | 32 | 86 | 6.4 | 9.7 | 0.00 | 0.00 | 0.00 | 59 | 1009.9 |
| 20260507172914 | 32 | 86 | 16.1 | 17.7 | 0.00 | 0.00 | 0.00 | 58 | 1010.4 |
| 20260507172410 | 32 | 120 | 9.7 | 11.3 | 0.00 | 0.00 | 0.00 | 60 | 1010.3 |
| 20260507171906 | 32 | 75 | 9.7 | 12.9 | 0.00 | 0.00 | 0.00 | 60 | 1010.3 |
| 20260507171403 | 32 | 99 | 9.7 | 11.3 | 0.00 | 0.00 | 0.00 | 59 | 1010.5 |
| 20260507170900 | 32 | 99 | 11.3 | 14.5 | 0.00 | 0.00 | 0.00 | 59 | 1010.3 |
| 20260507170357 | 32 | 86 | 12.9 | 14.5 | 0.00 | 0.00 | 0.00 | 58 | 1010.5 |
| 20260507165853 | 32 | 55 | 9.7 | 9.7 | 0.00 | 0.00 | 0.00 | 58 | 1010.7 |
| 20260507165349 | 32 | 60 | 12.9 | 16.1 | 0.00 | 0.00 | 0.00 | 57 | 1010.7 |
| 20260507164845 | 32 | 92 | 14.5 | 14.5 | 0.00 | 0.00 | 0.00 | 57 | 1010.9 |
| 20260507164342 | 32 | 69 | 11.3 | 12.9 | 0.00 | 0.00 | 0.00 | 57 | 1010.9 |
| 20260507163839 | 32 | 93 | 14.5 | 17.7 | 0.00 | 0.00 | 0.00 | 57 | 1011.2 |
| 20260507163337 | 32 | 52 | 8.0 | 11.3 | 0.00 | 0.00 | 0.00 | 58 | 1010.9 |
| 20260507162833 | 32 | 66 | 11.3 | 16.1 | 0.00 | 0.00 | 0.00 | 56 | 1011.1 |
| 20260507162329 | 32 | 79 | 12.9 | 14.5 | 0.00 | 0.00 | 0.00 | 57 | 1011.3 |
| 20260507161826 | 32 | 115 | 12.9 | 17.7 | 0.00 | 0.00 | 0.00 | 60 | 1011.1 |
| 20260507161322 | 32 | 62 | 11.3 | 12.9 | 0.00 | 0.00 | 0.00 | 58 | 1011.2 |
| 20260507160819 | 32 | 94 | 12.9 | 14.5 | 0.00 | 0.00 | 0.00 | 57 | 1011.2 |
| 20260507160315 | 32 | 54 | 14.5 | 17.7 | 0.00 | 0.00 | 0.00 | 56 | 1011.2 |
| 20260507155811 | 32 | 71 | 12.9 | 22.5 | 0.00 | 0.00 | 0.00 | 57 | 1011.3 |
| 20260507155307 | 32 | 112 | 11.3 | 14.5 | 0.00 | 0.00 | 0.00 | 58 | 1011.4 |
| 20260507154804 | 32 | 83 | 8.0 | 9.7 | 0.00 | 0.00 | 0.00 | 59 | 1011.5 |
| 20260507154301 | 32 | 71 | 3.2 | 3.2 | 0.00 | 0.00 | 0.00 | 60 | 1011.4 |
| 20260507153758 | 32 | 76 | 8.0 | 14.5 | 0.00 | 0.00 | 0.00 | 60 | 1011.3 |
| 20260507153254 | 32 | 73 | 16.1 | 16.1 | 0.00 | 0.00 | 0.00 | 59 | 1011.4 |
| 20260507152751 | 31 | 79 | 11.3 | 12.9 | 0.00 | 0.00 | 0.00 | 60 | 1011.3 |
| 20260507152248 | 32 | 87 | 12.9 | 12.9 | 0.00 | 0.00 | 0.00 | 59 | 1011.3 |
| 20260507151743 | 31 | 91 | 6.4 | 9.7 | 0.00 | 0.00 | 0.00 | 60 | 1011.5 |
| 20260507151240 | 31 | 131 | 9.7 | 16.1 | 0.00 | 0.00 | 0.00 | 58 | 1011.6 |
| 20260507150737 | 31 | 77 | 11.3 | 16.1 | 0.00 | 0.00 | 0.00 | 58 | 1011.6 |
| 20260507150234 | 31 | 124 | 11.3 | 16.1 | 0.00 | 0.00 | 0.00 | 60 | 1011.5 |
| 20260507145730 | 31 | 82 | 12.9 | 14.5 | 0.00 | 0.00 | 0.00 | 60 | 1011.5 |
| 20260507145226 | 31 | 93 | 9.7 | 14.5 | 0.00 | 0.00 | 0.00 | 61 | 1011.6 |
| 20260507144723 | 31 | 76 | 11.3 | 16.1 | 0.00 | 0.00 | 0.00 | 61 | 1011.6 |
| 20260507144221 | 31 | 125 | 6.4 | 11.3 | 0.00 | 0.00 | 0.00 | 61 | 1011.6 |
| 20260507143717 | 31 | 70 | 12.9 | 14.5 | 0.00 | 0.00 | 0.00 | 60 | 1011.7 |
| 20260507143215 | 31 | 94 | 6.4 | 9.7 | 0.00 | 0.00 | 0.00 | 61 | 1011.5 |
| 20260507142710 | 31 | 76 | 12.9 | 14.5 | 0.00 | 0.00 | 0.00 | 63 | 1011.5 |
| 20260507142207 | 31 | 69 | 8.0 | 11.3 | 0.00 | 0.00 | 0.00 | 64 | 1011.5 |
| 20260507141703 | 31 | 113 | 14.5 | 16.1 | 0.00 | 0.00 | 0.00 | 62 | 1011.6 |
| 20260507141200 | 31 | 77 | 14.5 | 14.5 | 0.00 | 0.00 | 0.00 | 62 | 1011.6 |
| 20260507140657 | 31 | 99 | 8.0 | 11.3 | 0.00 | 0.00 | 0.00 | 61 | 1011.7 |
| 20260507140154 | 30 | 53 | 8.0 | 9.7 | 0.00 | 0.00 | 0.00 | 63 | 1011.8 |
| 20260507135651 | 30 | 59 | 9.7 | 11.3 | 0.00 | 0.00 | 0.00 | 64 | 1011.7 |
| 20260507135148 | 31 | 118 | 9.7 | 12.9 | 0.00 | 0.00 | 0.00 | 62 | 1011.9 |
| 20260507134645 | 31 | 43 | 6.4 | 6.4 | 0.00 | 0.00 | 0.00 | 61 | 1011.7 |
| 20260507134141 | 30 | 113 | 8.0 | 11.3 | 0.00 | 0.00 | 0.00 | 62 | 1011.3 |
| 20260507133637 | 30 | 59 | 9.7 | 11.3 | 0.00 | 0.00 | 0.00 | 64 | 1011.7 |
| 20260507133135 | 30 | 80 | 8.0 | 9.7 | 0.00 | 0.00 | 0.00 | 64 | 1011.7 |
| 20260507132632 | 31 | 93 | 11.3 | 14.5 | 0.00 | 0.00 | 0.00 | 61 | 1011.7 |
| 20260507132127 | 29 | 43 | 3.2 | 3.2 | 0.00 | 0.00 | 0.00 | 65 | 1011.4 |
| 20260507131624 | 28 | 84 | 8.0 | 9.7 | 0.00 | 0.00 | 0.00 | 67 | 1011.6 |
| 20260507131122 | 29 | 64 | 8.0 | 9.7 | 0.00 | 0.00 | 0.00 | 67 | 1011.5 |
| 20260507130619 | 29 | 52 | 6.4 | 6.4 | 0.00 | 0.00 | 0.00 | 66 | 1011.5 |
| 20260507130117 | 30 | 65 | 4.8 | 4.8 | 0.00 | 0.00 | 0.00 | 65 | 1011.4 |
| 20260507125615 | 30 | 81 | 9.7 | 12.9 | 0.00 | 0.00 | 0.00 | 62 | 1011.3 |
| 20260507125112 | 30 | 78 | 4.8 | 4.8 | 0.00 | 0.00 | 0.00 | 64 | 1011.4 |
| 20260507124608 | 30 | 55 | 6.4 | 9.7 | 0.00 | 0.00 | 0.00 | 66 | 1011.3 |
| 20260507124107 | 30 | 87 | 9.7 | 12.9 | 0.00 | 0.00 | 0.00 | 65 | 1011.3 |
| 20260507123604 | 30 | 52 | 6.4 | 6.4 | 0.00 | 0.00 | 0.00 | 64 | 1011.2 |
| 20260507123101 | 29 | 67 | 9.7 | 11.3 | 0.00 | 0.00 | 0.00 | 66 | 1011.2 |
| 20260507122556 | 29 | 73 | 11.3 | 12.9 | 0.00 | 0.00 | 0.00 | 66 | 1011.1 |
| 20260507122052 | 29 | 70 | 11.3 | 14.5 | 0.00 | 0.00 | 0.00 | 66 | 1011.2 |
| 20260507121548 | 29 | 36 | 4.8 | 6.4 | 0.00 | 0.00 | 0.00 | 67 | 1010.7 |
| 20260507121044 | 29 | 59 | 4.8 | 6.4 | 0.00 | 0.00 | 0.00 | 66 | 1010.8 |
| 20260507120540 | 28 | 68 | 4.8 | 6.4 | 0.00 | 0.00 | 0.00 | 68 | 1011.0 |
| 20260507120038 | 28 | 49 | 6.4 | 9.7 | 0.00 | 0.00 | 0.00 | 69 | 1010.9 |
| 20260507115534 | 28 | 51 | 6.4 | 6.4 | 0.00 | 0.00 | 0.00 | 69 | 1010.6 |
| 20260507115030 | 28 | 52 | 6.4 | 9.7 | 0.00 | 0.00 | 0.00 | 68 | 1010.7 |
| 20260507114526 | 28 | 55 | 3.2 | 1.6 | 0.00 | 0.00 | 0.00 | 69 | 1010.7 |
| 20260507114023 | 28 | 79 | 3.2 | 4.8 | 0.00 | 0.00 | 0.00 | 69 | 1010.7 |
| 20260507113520 | 28 | 63 | 3.2 | 3.2 | 0.00 | 0.00 | 0.00 | 69 | 1010.6 |
| 20260507113017 | 28 | 54 | 3.2 | 3.2 | 0.00 | 0.00 | 0.00 | 67 | 1010.6 |
| 20260507112515 | 28 | 52 | 1.6 | 1.6 | 0.00 | 0.00 | 0.00 | 66 | 1010.8 |
| 20260507112011 | 28 | 348 | 0.0 | 0.0 | 0.00 | 0.00 | 0.00 | 67 | 1010.7 |
| 20260507111509 | 27 | 348 | 0.0 | 0.0 | 0.00 | 0.00 | 0.00 | 69 | 1010.6 |
| 20260507111004 | 27 | 347 | 1.6 | 1.6 | 0.00 | 0.00 | 0.00 | 69 | 1010.9 |
| 20260507110501 | 26 | 347 | 0.0 | 0.0 | 0.00 | 0.00 | 0.00 | 74 | 1010.8 |
| 20260507105958 | 25 | 347 | 0.0 | 0.0 | 0.00 | 0.00 | 0.00 | 80 | 1010.8 |
| 20260507105455 | 24 | 347 | 0.0 | 0.0 | 0.00 | 0.00 | 0.00 | 81 | 1010.7 |
| 20260507104951 | 24 | 347 | 0.0 | 0.0 | 0.00 | 0.00 | 0.00 | 81 | 1010.5 |
| 20260507104449 | 24 | 346 | 0.0 | 0.0 | 0.00 | 0.00 | 0.00 | 81 | 1010.6 |
| 20260507103944 | 23 | 346 | 0.0 | 0.0 | 0.00 | 0.00 | 0.00 | 83 | 1010.5 |
| 20260507103441 | 23 | 346 | 0.0 | 0.0 | 0.00 | 0.00 | 0.00 | 84 | 1010.6 |
| 20260507102937 | 23 | 346 | 0.0 | 1.6 | 0.00 | 0.00 | 0.00 | 85 | 1010.4 |
| 20260507102434 | 23 | 343 | 1.6 | 1.6 | 0.00 | 0.00 | 0.00 | 84 | 1010.2 |
| 20260507101931 | 23 | 22 | 0.0 | 1.6 | 0.00 | 0.00 | 0.00 | 85 | 1010.2 |
| 20260507101426 | 23 | 22 | 0.0 | 0.0 | 0.00 | 0.00 | 0.00 | 85 | 1010.1 |
| 20260507100922 | 22 | 22 | 1.6 | 1.6 | 0.00 | 0.00 | 0.00 | 85 | 1010.3 |
| 20260507100420 | 22 | 23 | 0.0 | 0.0 | 0.00 | 0.00 | 0.00 | 85 | 1009.9 |
| 20260507095918 | 22 | 27 | 0.0 | 0.0 | 0.00 | 0.00 | 0.00 | 85 | 1009.9 |
| 20260507095415 | 22 | 27 | 0.0 | 0.0 | 0.00 | 0.00 | 0.00 | 85 | 1010.0 |
| 20260507094912 | 22 | 27 | 0.0 | 0.0 | 0.00 | 0.00 | 0.00 | 85 | 1009.9 |
| 20260507094408 | 22 | 27 | 0.0 | 0.0 | 0.00 | 0.00 | 0.00 | 85 | 1009.9 |
| 20260507093905 | 22 | 27 | 0.0 | 0.0 | 0.00 | 0.00 | 0.00 | 85 | 1009.9 |
| 20260507093404 | 22 | 27 | 0.0 | 0.0 | 0.00 | 0.00 | 0.00 | 84 | 1010.0 |
| 20260507092902 | 23 | 27 | 0.0 | 0.0 | 0.00 | 0.00 | 0.00 | 84 | 1010.2 |
| 20260507092357 | 23 | 27 | 1.6 | 1.6 | 0.00 | 0.00 | 0.00 | 85 | 1010.1 |
| 20260507091854 | 23 | 27 | 0.0 | 0.0 | 0.00 | 0.00 | 0.00 | 84 | 1010.1 |
| 20260507091350 | 23 | 27 | 0.0 | 0.0 | 0.00 | 0.00 | 0.00 | 84 | 1009.9 |
| 20260507090846 | 23 | 27 | 0.0 | 0.0 | 0.00 | 0.00 | 0.00 | 84 | 1010.3 |
| 20260507090342 | 23 | 27 | 1.6 | 1.6 | 0.00 | 0.00 | 0.00 | 84 | 1010.1 |
| 20260507085840 | 23 | 27 | 0.0 | 0.0 | 0.00 | 0.00 | 0.00 | 84 | 1010.1 |
| 20260507085336 | 23 | 28 | 0.0 | 0.0 | 0.00 | 0.00 | 0.00 | 84 | 1010.1 |
| 20260507084834 | 23 | 29 | 0.0 | 0.0 | 0.00 | 0.00 | 0.00 | 84 | 1010.2 |
| 20260507084330 | 23 | 29 | 0.0 | 0.0 | 0.00 | 0.00 | 0.00 | 84 | 1010.1 |
| 20260507083828 | 23 | 30 | 0.0 | 0.0 | 0.00 | 0.00 | 0.00 | 84 | 1010.1 |
| 20260507083324 | 23 | 29 | 1.6 | 1.6 | 0.00 | 0.00 | 0.00 | 84 | 1010.1 |
| 20260507082820 | 23 | 29 | 1.6 | 1.6 | 0.00 | 0.00 | 0.00 | 84 | 1010.2 |
| 20260507082316 | 23 | 29 | 0.0 | 0.0 | 0.00 | 0.00 | 0.00 | 84 | 1010.1 |
| 20260507081813 | 23 | 29 | 0.0 | 0.0 | 0.00 | 0.00 | 0.00 | 84 | 1010.1 |
| 20260507081309 | 23 | 29 | 0.0 | 0.0 | 0.00 | 0.00 | 0.00 | 83 | 1010.1 |
| 20260507080806 | 23 | 29 | 0.0 | 0.0 | 0.00 | 0.00 | 0.00 | 83 | 1010.0 |
| 20260507080302 | 23 | 29 | 1.6 | 1.6 | 0.00 | 0.00 | 0.00 | 83 | 1009.9 |
| 20260507075757 | 23 | 29 | 1.6 | 0.0 | 0.00 | 0.00 | 0.00 | 84 | 1010.0 |
| 20260507075254 | 23 | 29 | 0.0 | 0.0 | 0.00 | 0.00 | 0.00 | 83 | 1009.9 |
| 20260507074750 | 23 | 30 | 1.6 | 1.6 | 0.00 | 0.00 | 0.00 | 83 | 1009.9 |
| 20260507074249 | 23 | 30 | 0.0 | 0.0 | 0.00 | 0.00 | 0.00 | 83 | 1009.7 |
| 20260507073745 | 23 | 32 | 0.0 | 0.0 | 0.00 | 0.00 | 0.00 | 83 | 1010.1 |
| 20260507073241 | 23 | 39 | 0.0 | 1.6 | 0.00 | 0.00 | 0.00 | 83 | 1010.0 |
| 20260507072739 | 23 | 24 | 0.0 | 0.0 | 0.00 | 0.00 | 0.00 | 83 | 1010.1 |
| 20260507072237 | 23 | 26 | 0.0 | 0.0 | 0.00 | 0.00 | 0.00 | 83 | 1010.1 |
| 20260507071734 | 23 | 26 | 0.0 | 0.0 | 0.00 | 0.00 | 0.00 | 83 | 1010.3 |
| 20260507071230 | 23 | 26 | 0.0 | 0.0 | 0.00 | 0.00 | 0.00 | 83 | 1010.2 |
| 20260507070727 | 23 | 26 | 0.0 | 0.0 | 0.00 | 0.00 | 0.00 | 82 | 1010.3 |
| 20260507070224 | 23 | 26 | 0.0 | 0.0 | 0.00 | 0.00 | 0.00 | 82 | 1010.2 |
| 20260507065721 | 23 | 26 | 1.6 | 1.6 | 0.00 | 0.00 | 0.00 | 82 | 1010.5 |
| 20260507065218 | 23 | 27 | 1.6 | 1.6 | 0.00 | 0.00 | 0.00 | 81 | 1010.4 |
| 20260507064715 | 23 | 27 | 0.0 | 0.0 | 0.00 | 0.00 | 0.00 | 81 | 1010.4 |
| 20260507064214 | 23 | 27 | 0.0 | 0.0 | 0.00 | 0.00 | 0.00 | 81 | 1010.4 |
| 20260507063711 | 23 | 27 | 0.0 | 0.0 | 0.00 | 0.00 | 0.00 | 81 | 1010.7 |
| 20260507063207 | 23 | 27 | 0.0 | 0.0 | 0.00 | 0.00 | 0.00 | 82 | 1011.0 |
| 20260507062704 | 23 | 27 | 1.6 | 0.0 | 0.00 | 0.00 | 0.00 | 82 | 1010.7 |
| 20260507062202 | 23 | 27 | 0.0 | 0.0 | 0.00 | 0.00 | 0.00 | 82 | 1010.8 |
| 20260507061700 | 23 | 27 | 0.0 | 0.0 | 0.00 | 0.00 | 0.00 | 82 | 1010.8 |
| 20260507061157 | 23 | 27 | 0.0 | 0.0 | 0.00 | 0.00 | 0.00 | 82 | 1010.9 |
| 20260507060655 | 23 | 27 | 0.0 | 0.0 | 0.00 | 0.00 | 0.00 | 82 | 1011.0 |
| 20260507060151 | 23 | 27 | 0.0 | 0.0 | 0.00 | 0.00 | 0.00 | 82 | 1011.0 |
| 20260507055647 | 23 | 27 | 1.6 | 1.6 | 0.00 | 0.00 | 0.00 | 82 | 1011.0 |
| 20260507055143 | 23 | 27 | 0.0 | 0.0 | 0.00 | 0.00 | 0.00 | 82 | 1011.0 |
| 20260507054639 | 23 | 27 | 0.0 | 0.0 | 0.00 | 0.00 | 0.00 | 82 | 1011.3 |
| 20260507054136 | 23 | 27 | 0.0 | 1.6 | 0.00 | 0.00 | 0.00 | 82 | 1011.1 |
| 20260507053634 | 23 | 27 | 1.6 | 1.6 | 0.00 | 0.00 | 0.00 | 81 | 1011.3 |
| 20260507053132 | 23 | 28 | 0.0 | 0.0 | 0.00 | 0.00 | 0.00 | 81 | 1011.3 |
| 20260507052630 | 23 | 28 | 1.6 | 1.6 | 0.00 | 0.00 | 0.00 | 81 | 1011.5 |
| 20260507052126 | 23 | 29 | 0.0 | 0.0 | 0.00 | 0.00 | 0.00 | 81 | 1011.5 |
| 20260507051624 | 23 | 32 | 1.6 | 1.6 | 0.00 | 0.00 | 0.00 | 81 | 1011.6 |
| 20260507051121 | 23 | 29 | 1.6 | 1.6 | 0.00 | 0.00 | 0.00 | 81 | 1011.5 |
| 20260507050618 | 23 | 26 | 1.6 | 1.6 | 0.00 | 0.00 | 0.00 | 81 | 1011.6 |
| 20260507050114 | 23 | 28 | 1.6 | 1.6 | 0.00 | 0.00 | 0.00 | 81 | 1011.7 |
| 20260507045611 | 23 | 28 | 1.6 | 1.6 | 0.00 | 0.00 | 0.00 | 80 | 1011.7 |
| 20260507045108 | 23 | 36 | 1.6 | 1.6 | 0.00 | 0.00 | 0.00 | 80 | 1011.8 |
| 20260507044604 | 23 | 26 | 1.6 | 3.2 | 0.00 | 0.00 | 0.00 | 80 | 1011.7 |
| 20260507044102 | 23 | 24 | 1.6 | 1.6 | 0.00 | 0.00 | 0.00 | 80 | 1012.0 |
| 20260507043557 | 23 | 24 | 0.0 | 0.0 | 0.00 | 0.00 | 0.00 | 80 | 1012.1 |
| 20260507043055 | 23 | 16 | 1.6 | 3.2 | 0.00 | 0.00 | 0.00 | 80 | 1012.0 |
| 20260507042550 | 23 | 24 | 1.6 | 1.6 | 0.00 | 0.00 | 0.00 | 80 | 1012.2 |
| 20260507042046 | 23 | 24 | 1.6 | 1.6 | 0.00 | 0.00 | 0.00 | 81 | 1012.2 |
| 20260507041543 | 23 | 24 | 1.6 | 1.6 | 0.00 | 0.00 | 0.00 | 81 | 1012.2 |
| 20260507041040 | 23 | 29 | 1.6 | 1.6 | 0.00 | 0.00 | 0.00 | 81 | 1012.2 |
| 20260507040537 | 24 | 26 | 3.2 | 3.2 | 0.00 | 0.00 | 0.00 | 81 | 1012.4 |
| 20260507040032 | 24 | 15 | 1.6 | 1.6 | 0.00 | 0.00 | 0.00 | 81 | 1012.2 |
| 20260507035529 | 24 | 21 | 0.0 | 1.6 | 0.00 | 0.00 | 0.00 | 81 | 1012.2 |
| 20260507035026 | 25 | 22 | 1.6 | 1.6 | 0.00 | 0.00 | 0.00 | 80 | 1012.4 |
| 20260507034522 | 25 | 22 | 1.6 | 1.6 | 0.00 | 0.00 | 0.00 | 80 | 1012.3 |
| 20260507034020 | 25 | 21 | 0.0 | 1.6 | 0.00 | 0.00 | 0.00 | 80 | 1012.3 |
| 20260507033518 | 25 | 22 | 1.6 | 1.6 | 0.00 | 0.00 | 0.00 | 80 | 1012.5 |
| 20260507033015 | 25 | 22 | 0.0 | 1.6 | 0.00 | 0.00 | 0.00 | 80 | 1012.6 |
| 20260507032512 | 25 | 22 | 1.6 | 1.6 | 0.00 | 0.00 | 0.00 | 80 | 1012.5 |
| 20260507032008 | 25 | 22 | 1.6 | 1.6 | 0.00 | 0.00 | 0.00 | 80 | 1012.4 |
| 20260507031504 | 25 | 22 | 0.0 | 0.0 | 0.00 | 0.00 | 0.00 | 80 | 1012.6 |
| 20260507031002 | 25 | 22 | 0.0 | 0.0 | 0.00 | 0.00 | 0.00 | 80 | 1012.6 |
| 20260507030458 | 25 | 22 | 0.0 | 0.0 | 0.00 | 0.00 | 0.00 | 80 | 1012.5 |
| 20260507025955 | 25 | 23 | 0.0 | 0.0 | 0.00 | 0.00 | 0.00 | 80 | 1012.5 |
| 20260507025453 | 25 | 26 | 0.0 | 0.0 | 0.00 | 0.00 | 0.00 | 80 | 1012.6 |
| 20260507024951 | 25 | 27 | 1.6 | 1.6 | 0.00 | 0.00 | 0.00 | 80 | 1012.7 |
| 20260507024448 | 25 | 36 | 1.6 | 1.6 | 0.00 | 0.00 | 0.00 | 80 | 1012.8 |
| 20260507023943 | 25 | 37 | 1.6 | 1.6 | 0.00 | 0.00 | 0.00 | 80 | 1012.8 |
| 20260507023440 | 25 | 15 | 0.0 | 1.6 | 0.00 | 0.00 | 0.00 | 81 | 1012.5 |
| 20260507022938 | 25 | 15 | 1.6 | 1.6 | 0.00 | 0.00 | 0.00 | 81 | 1012.6 |
| 20260507022435 | 25 | 21 | 1.6 | 1.6 | 0.00 | 0.00 | 0.00 | 80 | 1012.5 |
| 20260507021930 | 25 | 357 | 3.2 | 3.2 | 0.00 | 0.00 | 0.00 | 80 | 1012.5 |
| 20260507021425 | 26 | 21 | 1.6 | 1.6 | 0.00 | 0.00 | 0.00 | 81 | 1012.5 |
| 20260507020924 | 26 | 23 | 1.6 | 1.6 | 0.00 | 0.00 | 0.00 | 81 | 1012.5 |
| 20260507020420 | 26 | 23 | 0.0 | 0.0 | 0.00 | 0.00 | 0.00 | 81 | 1012.5 |
| 20260507015917 | 26 | 22 | 1.6 | 1.6 | 0.00 | 0.00 | 0.00 | 81 | 1012.3 |
| 20260507015415 | 26 | 23 | 0.0 | 0.0 | 0.00 | 0.00 | 0.00 | 81 | 1012.5 |
| 20260507014912 | 26 | 46 | 1.6 | 1.6 | 0.00 | 0.00 | 0.00 | 81 | 1012.3 |
| 20260507014408 | 26 | 49 | 1.6 | 1.6 | 0.00 | 0.00 | 0.00 | 80 | 1012.2 |
| 20260507013904 | 26 | 49 | 1.6 | 1.6 | 0.00 | 0.00 | 0.00 | 80 | 1012.2 |
| 20260507013402 | 26 | 49 | 0.0 | 0.0 | 0.00 | 0.00 | 0.00 | 80 | 1012.2 |
| 20260507012859 | 26 | 49 | 1.6 | 1.6 | 0.00 | 0.00 | 0.00 | 80 | 1012.1 |
| 20260507012355 | 26 | 52 | 1.6 | 1.6 | 0.00 | 0.00 | 0.00 | 79 | 1012.0 |
| 20260507011852 | 26 | 19 | 1.6 | 1.6 | 0.00 | 0.00 | 0.00 | 79 | 1012.2 |
| 20260507011350 | 26 | 18 | 1.6 | 1.6 | 0.00 | 0.00 | 0.00 | 79 | 1012.0 |
| 20260507010849 | 26 | 19 | 1.6 | 1.6 | 0.00 | 0.00 | 0.00 | 79 | 1012.2 |
| 20260507010345 | 26 | 20 | 1.6 | 1.6 | 0.00 | 0.00 | 0.00 | 79 | 1012.2 |
| 20260507005842 | 26 | 30 | 0.0 | 0.0 | 0.00 | 0.00 | 0.00 | 78 | 1012.0 |
| 20260507005339 | 27 | 30 | 0.0 | 0.0 | 0.00 | 0.00 | 0.00 | 77 | 1011.9 |
| 20260507004836 | 27 | 33 | 0.0 | 0.0 | 0.00 | 0.00 | 0.00 | 76 | 1011.9 |
| 20260507004333 | 27 | 26 | 3.2 | 3.2 | 0.00 | 0.00 | 0.00 | 76 | 1011.6 |
| 20260507003830 | 27 | 38 | 1.6 | 1.6 | 0.00 | 0.00 | 0.00 | 76 | 1011.7 |
| 20260507003325 | 27 | 59 | 3.2 | 3.2 | 0.00 | 0.00 | 0.00 | 75 | 1011.8 |
| 20260507002820 | 27 | 45 | 1.6 | 1.6 | 0.00 | 0.00 | 0.00 | 75 | 1011.7 |
| 20260507002317 | 27 | 49 | 3.2 | 3.2 | 0.00 | 0.00 | 0.00 | 75 | 1011.5 |
| 20260507001815 | 27 | 55 | 3.2 | 3.2 | 0.00 | 0.00 | 0.00 | 76 | 1011.4 |
| 20260507001312 | 27 | 48 | 3.2 | 3.2 | 0.00 | 0.00 | 0.00 | 75 | 1011.5 |
| 20260507000808 | 27 | 43 | 3.2 | 3.2 | 0.00 | 0.00 | 0.00 | 75 | 1011.6 |
| 20260507000306 | 27 | 48 | 3.2 | 4.8 | 0.00 | 0.00 | 0.00 | 75 | 1011.6 |
| 20260506235800 | 27 | 57 | 3.2 | 4.8 | 0.00 | 0.00 | 0.00 | 75 | 1011.5 |
| 20260506235256 | 28 | 55 | 1.6 | 1.6 | 0.00 | 0.00 | 0.00 | 75 | 1011.4 |
| 20260506234753 | 28 | 66 | 4.8 | 4.8 | 0.00 | 0.00 | 0.00 | 74 | 1011.3 |
| 20260506234250 | 28 | 61 | 6.4 | 9.7 | 0.00 | 0.00 | 0.00 | 74 | 1011.2 |
| 20260506233748 | 27 | 49 | 4.8 | 6.4 | 0.00 | 0.00 | 0.00 | 74 | 1011.1 |
| 20260506233244 | 28 | 100 | 6.4 | 9.7 | 0.00 | 0.00 | 0.00 | 74 | 1011.1 |
| 20260506232736 | 28 | 93 | 9.7 | 11.3 | 0.00 | 0.00 | 0.00 | 74 | 1011.1 |
| 20260506232236 | 28 | 78 | 6.4 | 9.7 | 0.00 | 0.00 | 0.00 | 74 | 1011.1 |
| 20260506231733 | 28 | 70 | 6.4 | 6.4 | 0.00 | 0.00 | 0.00 | 74 | 1011.0 |
| 20260506231231 | 28 | 81 | 8.0 | 9.7 | 0.00 | 0.00 | 0.00 | 74 | 1011.0 |
| 20260506230728 | 28 | 53 | 6.4 | 6.4 | 0.00 | 0.00 | 0.00 | 74 | 1011.0 |
| 20260506230225 | 28 | 68 | 8.0 | 9.7 | 0.00 | 0.00 | 0.00 | 74 | 1010.9 |
| 20260506225721 | 28 | 107 | 11.3 | 12.9 | 0.00 | 0.00 | 0.00 | 74 | 1011.0 |
| 20260506225219 | 28 | 91 | 6.4 | 6.4 | 0.00 | 0.00 | 0.00 | 73 | 1010.7 |
| 20260506224715 | 28 | 98 | 8.0 | 11.3 | 0.00 | 0.00 | 0.00 | 73 | 1010.9 |
| 20260506224212 | 28 | 83 | 8.0 | 11.3 | 0.00 | 0.00 | 0.00 | 73 | 1010.6 |
| 20260506223708 | 28 | 111 | 8.0 | 9.7 | 0.00 | 0.00 | 0.00 | 72 | 1010.7 |
| 20260506222256 | 29 | 86 | 9.7 | 12.9 | 0.00 | 0.00 | 0.00 | 68 | 1010.6 |
| 20260506221754 | 29 | 86 | 9.7 | 12.9 | 0.00 | 0.00 | 0.00 | 68 | 1010.6 |
| 20260506221252 | 29 | 86 | 9.7 | 12.9 | 0.00 | 0.00 | 0.00 | 68 | 1010.6 |
| 20260506220749 | 29 | 103 | 6.4 | 11.3 | 0.00 | 0.00 | 0.00 | 68 | 1010.4 |
| 20260506220244 | 29 | 81 | 12.9 | 14.5 | 0.00 | 0.00 | 0.00 | 69 | 1010.6 |
| 20260506215741 | 30 | 62 | 11.3 | 17.7 | 0.00 | 0.00 | 0.00 | 68 | 1010.4 |
| 20260506215236 | 30 | 83 | 12.9 | 16.1 | 0.00 | 0.00 | 0.00 | 68 | 1010.6 |
| 20260506214733 | 30 | 87 | 6.4 | 6.4 | 0.00 | 0.00 | 0.00 | 68 | 1010.4 |
| 20260506214230 | 30 | 114 | 6.4 | 4.8 | 0.00 | 0.00 | 0.00 | 69 | 1010.4 |
| 20260506213728 | 30 | 91 | 8.0 | 11.3 | 0.00 | 0.00 | 0.00 | 67 | 1010.5 |
| 20260506213225 | 30 | 101 | 9.7 | 11.3 | 0.00 | 0.00 | 0.00 | 67 | 1010.3 |
| 20260506212723 | 30 | 103 | 11.3 | 11.3 | 0.00 | 0.00 | 0.00 | 66 | 1010.5 |
| 20260506212218 | 30 | 116 | 9.7 | 11.3 | 0.00 | 0.00 | 0.00 | 66 | 1010.5 |
| 20260506211713 | 30 | 107 | 14.5 | 17.7 | 0.00 | 0.00 | 0.00 | 64 | 1010.3 |
| 20260506211210 | 30 | 73 | 14.5 | 14.5 | 0.00 | 0.00 | 0.00 | 65 | 1010.3 |
| 20260506210707 | 30 | 111 | 11.3 | 12.9 | 0.00 | 0.00 | 0.00 | 64 | 1009.9 |
| 20260506210204 | 31 | 167 | 14.5 | 16.1 | 0.00 | 0.00 | 0.00 | 63 | 1010.1 |
| 20260506205701 | 31 | 67 | 9.7 | 11.3 | 0.00 | 0.00 | 0.00 | 63 | 1010.3 |
| 20260506205156 | 31 | 113 | 8.0 | 9.7 | 0.00 | 0.00 | 0.00 | 61 | 1010.0 |
| 20260506204654 | 31 | 89 | 8.0 | 11.3 | 0.00 | 0.00 | 0.00 | 61 | 1010.1 |
| 20260506204150 | 31 | 77 | 9.7 | 12.9 | 0.00 | 0.00 | 0.00 | 61 | 1010.1 |
| 20260506203649 | 31 | 139 | 9.7 | 14.5 | 0.00 | 0.00 | 0.00 | 61 | 1010.3 |
| 20260506203145 | 31 | 132 | 12.9 | 14.5 | 0.00 | 0.00 | 0.00 | 61 | 1010.1 |
| 20260506202643 | 31 | 84 | 14.5 | 16.1 | 0.00 | 0.00 | 0.00 | 60 | 1010.1 |
| 20260506202139 | 31 | 89 | 12.9 | 12.9 | 0.00 | 0.00 | 0.00 | 57 | 1010.2 |